Time;durP1;ratioP1;P1;durP2;ratioP2;P2;SDS_P1;SDS_P2;PMS_P1;PMS_P2;Temp;Humidity;BMP_temperature;BMP_pressure;BME280_temperature;BME280_humidity;BME280_pressure;Samples;Min_cycle;Max_cycle;Signal;HPM_P1;HPM_P2
2024/01/19 00:01:22;;;;;;;4.95;2.10;;;;;;;;;;5048866;28;20053;-74
2024/01/19 00:03:48;;;;;;;8.07;2.55;;;;;;;;;;5037697;28;20013;-74
2024/01/19 00:06:15;;;;;;;3.83;1.30;;;;;;;;;;5027370;28;20025;-74
2024/01/19 00:08:41;;;;;;;8.52;1.02;;;;;;;;;;5035504;28;20017;-74
2024/01/19 00:11:12;;;;;;;8.27;1.25;;;;;;;;;;5047351;28;20021;-74
2024/01/19 00:13:38;;;;;;;7.82;0.98;;;;;;;;;;5039269;28;20072;-74
2024/01/19 00:16:04;;;;;;;3.55;0.90;;;;;;;;;;5027112;28;20025;-74
2024/01/19 00:18:30;;;;;;;5.47;1.10;;;;;;;;;;5033772;28;20066;-74
2024/01/19 00:20:56;;;;;;;7.32;1.27;;;;;;;;;;5048458;28;20420;-74
2024/01/19 00:23:22;;;;;;;8.13;1.40;;;;;;;;;;5043199;28;20513;-74
2024/01/19 00:25:48;;;;;;;5.90;1.00;;;;;;;;;;5028581;28;20040;-74
2024/01/19 00:28:15;;;;;;;5.65;1.10;;;;;;;;;;5032063;28;20099;-73
2024/01/19 00:30:41;;;;;;;10.10;1.80;;;;;;;;;;5047103;28;20021;-74
2024/01/19 00:33:07;;;;;;;6.95;1.88;;;;;;;;;;5044437;28;20071;-74
2024/01/19 00:35:33;;;;;;;4.25;2.10;;;;;;;;;;5028459;28;20512;-74
2024/01/19 00:37:59;;;;;;;10.77;3.10;;;;;;;;;;5029226;28;20013;-74
2024/01/19 00:40:25;;;;;;;8.52;2.00;;;;;;;;;;5048091;28;20013;-74
2024/01/19 00:42:51;;;;;;;9.55;1.85;;;;;;;;;;5048112;28;20066;-74
2024/01/19 00:45:17;;;;;;;5.88;1.52;;;;;;;;;;5027255;28;20104;-74
2024/01/19 00:47:43;;;;;;;8.35;1.40;;;;;;;;;;5026800;28;20049;-74
2024/01/19 00:50:09;;;;;;;6.80;1.30;;;;;;;;;;5043981;28;20079;-74
2024/01/19 00:52:36;;;;;;;9.68;1.48;;;;;;;;;;5047845;28;20017;-74
2024/01/19 00:55:03;;;;;;;11.70;1.70;;;;;;;;;;5031828;28;20010;-74
2024/01/19 00:57:29;;;;;;;13.00;1.85;;;;;;;;;;5032286;28;20021;-74
2024/01/19 00:59:55;;;;;;;7.20;1.33;;;;;;;;;;5044322;28;20032;-74
2024/01/19 01:02:21;;;;;;;2.85;0.77;;;;;;;;;;5050667;28;20021;-74
2024/01/19 01:04:47;;;;;;;3.33;0.75;;;;;;;;;;5039996;28;20091;-74
2024/01/19 01:07:13;;;;;;;3.97;0.80;;;;;;;;;;5031974;28;20026;-74
2024/01/19 01:09:39;;;;;;;3.90;0.60;;;;;;;;;;5041593;28;20048;-73
2024/01/19 01:12:06;;;;;;;4.10;1.23;;;;;;;;;;5051747;28;20021;-74
2024/01/19 01:14:32;;;;;;;3.17;0.65;;;;;;;;;;5044370;28;20090;-74
2024/01/19 01:16:58;;;;;;;5.40;0.80;;;;;;;;;;5030650;28;20102;-74
2024/01/19 01:19:24;;;;;;;5.50;0.82;;;;;;;;;;5038416;28;20086;-73
2024/01/19 01:21:50;;;;;;;2.90;0.68;;;;;;;;;;5032386;28;20412;-73
2024/01/19 01:24:16;;;;;;;5.68;0.77;;;;;;;;;;5032052;28;20026;-73
2024/01/19 01:26:42;;;;;;;6.18;1.00;;;;;;;;;;5031682;28;20095;-74
2024/01/19 01:29:08;;;;;;;5.65;1.13;;;;;;;;;;5031639;28;20053;-73
2024/01/19 01:31:34;;;;;;;6.65;1.00;;;;;;;;;;5051673;28;20087;-74
2024/01/19 01:34:00;;;;;;;4.80;1.00;;;;;;;;;;5050225;28;20028;-74
2024/01/19 01:36:26;;;;;;;9.15;1.20;;;;;;;;;;5031443;28;20029;-73
2024/01/19 01:38:52;;;;;;;7.35;1.17;;;;;;;;;;5031533;28;20066;-74
2024/01/19 01:41:18;;;;;;;4.22;0.85;;;;;;;;;;5048503;28;20024;-74
2024/01/19 01:43:44;;;;;;;7.82;1.30;;;;;;;;;;5051257;28;20053;-74
2024/01/19 01:46:09;;;;;;;4.85;0.98;;;;;;;;;;5033139;28;20104;-74
2024/01/19 01:48:36;;;;;;;2.38;0.50;;;;;;;;;;5030945;28;20101;-74
2024/01/19 01:51:04;;;;;;;3.67;0.68;;;;;;;;;;5046267;28;20081;-74
2024/01/19 01:53:30;;;;;;;3.72;0.93;;;;;;;;;;5050074;28;20490;-74
2024/01/19 01:55:56;;;;;;;6.57;1.05;;;;;;;;;;5037213;28;20432;-74
2024/01/19 01:58:22;;;;;;;3.85;0.80;;;;;;;;;;5029774;28;20025;-74
2024/01/19 02:00:49;;;;;;;4.55;0.90;;;;;;;;;;5041813;28;20070;-74
2024/01/19 02:03:15;;;;;;;2.85;1.00;;;;;;;;;;5049816;28;20381;-73
2024/01/19 02:05:41;;;;;;;5.90;0.88;;;;;;;;;;5050222;28;20016;-74
2024/01/19 02:08:07;;;;;;;5.13;0.90;;;;;;;;;;5049945;28;20033;-74
2024/01/19 02:10:33;;;;;;;3.55;0.70;;;;;;;;;;5041787;28;20449;-74
2024/01/19 02:12:59;;;;;;;3.92;0.57;;;;;;;;;;5029618;28;20269;-74
2024/01/19 02:15:30;;;;;;;6.97;1.15;;;;;;;;;;5029659;28;20044;-74
2024/01/19 02:17:56;;;;;;;5.65;1.50;;;;;;;;;;5029583;28;20059;-75
2024/01/19 02:20:22;;;;;;;6.55;1.65;;;;;;;;;;5035280;28;20109;-74
2024/01/19 02:22:49;;;;;;;6.55;1.00;;;;;;;;;;5049216;28;20089;-74
2024/01/19 02:25:15;;;;;;;9.38;1.38;;;;;;;;;;5046290;28;20018;-74
2024/01/19 02:27:41;;;;;;;8.15;1.23;;;;;;;;;;5030619;28;20041;-74
2024/01/19 02:30:08;;;;;;;7.47;1.48;;;;;;;;;;5034136;28;20028;-74
2024/01/19 02:32:34;;;;;;;5.43;1.15;;;;;;;;;;5049434;28;20005;-75
2024/01/19 02:35:00;;;;;;;6.68;0.98;;;;;;;;;;5047080;28;20089;-74
2024/01/19 02:37:26;;;;;;;9.65;1.50;;;;;;;;;;5029098;28;20017;-74
2024/01/19 02:39:52;;;;;;;10.90;1.52;;;;;;;;;;5030635;28;20099;-74
2024/01/19 02:42:18;;;;;;;10.10;1.23;;;;;;;;;;5050583;28;20067;-75
2024/01/19 02:44:44;;;;;;;9.63;1.90;;;;;;;;;;5049019;28;20017;-74
2024/01/19 02:47:10;;;;;;;6.28;1.00;;;;;;;;;;5031287;28;20030;-75
2024/01/19 02:49:37;;;;;;;10.23;1.25;;;;;;;;;;5028776;28;20258;-75
2024/01/19 02:52:03;;;;;;;4.38;1.05;;;;;;;;;;5046700;28;20070;-75
2024/01/19 02:54:29;;;;;;;7.78;1.40;;;;;;;;;;5049715;28;20114;-74
2024/01/19 02:56:55;;;;;;;5.57;0.98;;;;;;;;;;5033632;28;20458;-74
2024/01/19 02:59:21;;;;;;;9.93;1.50;;;;;;;;;;5030252;28;20033;-74
2024/01/19 03:01:47;;;;;;;6.35;1.02;;;;;;;;;;5043293;28;20045;-74
2024/01/19 03:04:13;;;;;;;8.82;1.27;;;;;;;;;;5048661;28;20017;-74
2024/01/19 03:06:39;;;;;;;10.27;1.60;;;;;;;;;;5048352;28;20491;-74
2024/01/19 03:09:05;;;;;;;6.80;1.13;;;;;;;;;;5050145;28;20256;-74
2024/01/19 03:11:31;;;;;;;10.57;1.70;;;;;;;;;;5048427;28;20025;-75
2024/01/19 03:13:57;;;;;;;8.13;1.30;;;;;;;;;;5049590;28;20424;-74
2024/01/19 03:16:23;;;;;;;9.88;1.20;;;;;;;;;;5038772;28;20105;-75
2024/01/19 03:18:49;;;;;;;8.15;1.20;;;;;;;;;;5028892;28;20394;-74
2024/01/19 03:21:16;;;;;;;9.23;1.30;;;;;;;;;;5037317;28;20481;-75
2024/01/19 03:23:42;;;;;;;10.82;2.00;;;;;;;;;;5048108;28;20021;-74
2024/01/19 03:26:08;;;;;;;14.27;1.83;;;;;;;;;;5040343;28;20470;-75
2024/01/19 03:28:34;;;;;;;11.63;1.50;;;;;;;;;;5036360;28;20037;-74
2024/01/19 03:31:00;;;;;;;10.02;1.73;;;;;;;;;;5045861;28;20025;-75
2024/01/19 03:33:26;;;;;;;6.88;1.20;;;;;;;;;;5048688;28;20033;-75
2024/01/19 03:35:52;;;;;;;10.27;1.90;;;;;;;;;;5046580;28;20087;-75
2024/01/19 03:38:18;;;;;;;9.45;1.58;;;;;;;;;;5049359;28;20028;-75
2024/01/19 03:40:44;;;;;;;8.55;1.70;;;;;;;;;;5048968;28;20024;-75
2024/01/19 03:43:10;;;;;;;10.18;1.55;;;;;;;;;;5047839;28;20455;-75
2024/01/19 03:45:36;;;;;;;10.57;1.98;;;;;;;;;;5047859;28;20596;-75
2024/01/19 03:48:03;;;;;;;10.50;1.60;;;;;;;;;;5030123;28;20044;-74
2024/01/19 03:50:29;;;;;;;15.43;2.05;;;;;;;;;;5029310;28;20010;-74
2024/01/19 03:52:55;;;;;;;8.65;1.30;;;;;;;;;;5045376;28;20071;-74
2024/01/19 03:55:21;;;;;;;8.73;1.23;;;;;;;;;;5048854;28;20044;-75
2024/01/19 03:57:47;;;;;;;8.52;1.63;;;;;;;;;;5033990;28;20025;-74
2024/01/19 04:00:13;;;;;;;9.10;1.70;;;;;;;;;;5029056;28;20588;-74
2024/01/19 04:02:39;;;;;;;11.20;1.88;;;;;;;;;;5042567;28;20087;-74
2024/01/19 04:05:06;;;;;;;6.15;1.27;;;;;;;;;;5048842;28;20415;-74
2024/01/19 04:07:32;;;;;;;9.65;1.70;;;;;;;;;;5035382;28;20040;-75
2024/01/19 04:09:58;;;;;;;10.32;1.73;;;;;;;;;;5027789;28;20021;-74
2024/01/19 04:12:23;;;;;;;11.02;1.60;;;;;;;;;;5039278;28;20217;-74
2024/01/19 04:14:50;;;;;;;14.10;1.60;;;;;;;;;;5047194;28;20041;-75
2024/01/19 04:17:16;;;;;;;9.77;1.40;;;;;;;;;;5039076;28;20013;-75
2024/01/19 04:19:42;;;;;;;12.80;1.70;;;;;;;;;;5027345;28;20542;-75
2024/01/19 04:22:08;;;;;;;6.38;1.10;;;;;;;;;;5035583;28;20017;-76
2024/01/19 04:24:34;;;;;;;9.57;1.40;;;;;;;;;;5047178;28;20044;-76
2024/01/19 04:27:00;;;;;;;4.47;0.80;;;;;;;;;;5042594;28;20398;-76
2024/01/19 04:29:26;;;;;;;6.35;1.40;;;;;;;;;;5027164;28;20037;-76
2024/01/19 04:31:53;;;;;;;9.18;1.15;;;;;;;;;;5029151;28;20009;-76
2024/01/19 04:34:19;;;;;;;6.28;0.93;;;;;;;;;;5046947;28;20017;-76
2024/01/19 04:36:45;;;;;;;7.90;1.13;;;;;;;;;;5048505;28;20017;-77
2024/01/19 04:39:12;;;;;;;5.55;1.00;;;;;;;;;;5028465;28;20029;-76
2024/01/19 04:41:38;;;;;;;4.90;1.02;;;;;;;;;;5027236;28;20424;-75
2024/01/19 04:44:04;;;;;;;7.38;1.40;;;;;;;;;;5045564;28;20545;-76
2024/01/19 04:46:30;;;;;;;5.82;1.65;;;;;;;;;;5047257;28;20017;-76
2024/01/19 04:48:56;;;;;;;8.02;1.63;;;;;;;;;;5031119;28;20044;-76
2024/01/19 04:51:22;;;;;;;10.05;1.77;;;;;;;;;;5026859;28;20010;-75
2024/01/19 04:53:48;;;;;;;6.60;1.17;;;;;;;;;;5043769;28;20098;-76
2024/01/19 04:56:14;;;;;;;8.85;1.13;;;;;;;;;;5048035;28;20470;-76
2024/01/19 04:58:40;;;;;;;6.15;0.95;;;;;;;;;;5028108;28;20022;-75
2024/01/19 05:01:06;;;;;;;6.72;1.05;;;;;;;;;;5027059;28;20010;-76
2024/01/19 05:03:32;;;;;;;7.47;1.65;;;;;;;;;;5041148;28;20100;-76
2024/01/19 05:05:58;;;;;;;7.30;1.27;;;;;;;;;;5048659;28;20139;-76
2024/01/19 05:08:24;;;;;;;5.35;1.25;;;;;;;;;;5036259;28;20120;-76
2024/01/19 05:10:50;;;;;;;3.78;0.80;;;;;;;;;;5028377;28;20429;-75
2024/01/19 05:13:16;;;;;;;9.20;1.38;;;;;;;;;;5038426;28;20024;-75
2024/01/19 05:15:43;;;;;;;10.05;1.38;;;;;;;;;;5048149;28;20096;-75
2024/01/19 05:18:09;;;;;;;8.52;1.40;;;;;;;;;;5038888;28;20024;-75
2024/01/19 05:20:36;;;;;;;7.88;1.25;;;;;;;;;;5028163;28;20024;-76
2024/01/19 05:23:02;;;;;;;9.57;1.33;;;;;;;;;;5034256;28;20017;-74
2024/01/19 05:25:28;;;;;;;11.00;1.77;;;;;;;;;;5046548;28;20385;-75
2024/01/19 05:27:55;;;;;;;6.45;1.27;;;;;;;;;;5041744;28;20064;-76
2024/01/19 05:30:21;;;;;;;9.93;1.70;;;;;;;;;;5028058;28;20014;-76
2024/01/19 05:32:47;;;;;;;10.82;1.75;;;;;;;;;;5031071;28;20009;-75
2024/01/19 05:35:13;;;;;;;9.13;1.50;;;;;;;;;;5046209;28;20013;-75
2024/01/19 05:37:39;;;;;;;9.20;2.78;;;;;;;;;;5043537;28;20021;-75
2024/01/19 05:40:05;;;;;;;10.90;2.50;;;;;;;;;;5026770;28;20068;-75
2024/01/19 05:42:31;;;;;;;9.82;1.80;;;;;;;;;;5030113;28;20021;-76
2024/01/19 05:44:57;;;;;;;8.20;1.65;;;;;;;;;;5051252;28;20501;-76
2024/01/19 05:47:23;;;;;;;9.85;1.55;;;;;;;;;;5050049;28;20075;-75
2024/01/19 05:49:49;;;;;;;11.48;1.80;;;;;;;;;;5030191;28;20137;-76
2024/01/19 05:52:15;;;;;;;16.10;2.15;;;;;;;;;;5029984;28;20105;-75
2024/01/19 05:54:41;;;;;;;14.73;2.20;;;;;;;;;;5048212;28;20442;-75
2024/01/19 05:57:09;;;;;;;10.10;1.65;;;;;;;;;;5051528;28;20477;-75
2024/01/19 05:59:38;;;;;;;11.38;1.67;;;;;;;;;;5032335;28;20025;-75
2024/01/19 06:02:04;;;;;;;11.18;2.00;;;;;;;;;;5031170;28;20176;-75
2024/01/19 06:04:33;;;;;;;9.98;2.03;;;;;;;;;;5044304;28;20481;-75
2024/01/19 06:06:59;;;;;;;16.42;2.28;;;;;;;;;;5050110;28;20477;-75
2024/01/19 06:09:25;;;;;;;18.42;2.50;;;;;;;;;;5036273;28;20109;-75
2024/01/19 06:11:51;;;;;;;11.75;2.30;;;;;;;;;;5029552;28;20014;-75
2024/01/19 06:14:17;;;;;;;15.15;2.90;;;;;;;;;;5041777;28;20017;-75
2024/01/19 06:16:43;;;;;;;15.25;2.90;;;;;;;;;;5051135;28;20048;-75
2024/01/19 06:19:09;;;;;;;17.50;3.20;;;;;;;;;;5039018;28;20045;-75
2024/01/19 06:21:35;;;;;;;18.92;3.15;;;;;;;;;;5030611;28;20061;-75
2024/01/19 06:24:01;;;;;;;21.48;3.65;;;;;;;;;;5040044;28;20021;-75
2024/01/19 06:26:32;;;;;;;16.48;2.90;;;;;;;;;;5050777;28;20100;-76
2024/01/19 06:28:58;;;;;;;19.20;2.90;;;;;;;;;;5040892;28;20263;-75
2024/01/19 06:31:24;;;;;;;16.52;3.25;;;;;;;;;;5030696;28;20037;-75
2024/01/19 06:33:50;;;;;;;14.35;3.28;;;;;;;;;;5033999;28;20017;-75
2024/01/19 06:36:16;;;;;;;19.25;3.20;;;;;;;;;;5049138;28;20469;-75
2024/01/19 06:38:42;;;;;;;15.88;2.35;;;;;;;;;;5048159;28;20028;-75
2024/01/19 06:41:08;;;;;;;18.23;2.10;;;;;;;;;;5048856;28;20023;-75
2024/01/19 06:43:34;;;;;;;14.25;2.83;;;;;;;;;;5048591;28;20017;-75
2024/01/19 06:46:00;;;;;;;17.65;2.75;;;;;;;;;;5047030;28;20103;-75
2024/01/19 06:48:26;;;;;;;14.52;3.30;;;;;;;;;;5049152;28;20104;-75
2024/01/19 06:50:52;;;;;;;17.33;3.95;;;;;;;;;;5045912;28;20108;-75
2024/01/19 06:53:18;;;;;;;18.60;5.25;;;;;;;;;;5049538;28;20009;-74
2024/01/19 06:55:44;;;;;;;24.05;5.78;;;;;;;;;;5045826;28;20017;-75
2024/01/19 06:58:10;;;;;;;19.67;5.35;;;;;;;;;;5049953;28;20212;-75
2024/01/19 07:00:36;;;;;;;16.88;4.18;;;;;;;;;;5044459;28;20025;-75
2024/01/19 07:03:03;;;;;;;22.45;3.53;;;;;;;;;;5047350;28;20060;-75
2024/01/19 07:05:28;;;;;;;17.40;3.47;;;;;;;;;;5047240;28;20024;-75
2024/01/19 07:07:55;;;;;;;20.52;3.92;;;;;;;;;;5048079;28;20358;-78
2024/01/19 07:10:21;;;;;;;14.98;2.72;;;;;;;;;;5047022;28;20013;-75
2024/01/19 07:12:47;;;;;;;15.05;2.67;;;;;;;;;;5048232;28;20013;-77
2024/01/19 07:15:14;;;;;;;16.50;2.40;;;;;;;;;;5035167;28;20013;-74
2024/01/19 07:17:40;;;;;;;11.88;1.98;;;;;;;;;;5043543;28;20056;-74
2024/01/19 07:20:07;;;;;;;13.82;2.30;;;;;;;;;;5043800;28;20122;-74
2024/01/19 07:22:34;;;;;;;15.70;2.22;;;;;;;;;;5045249;28;20028;-74
2024/01/19 07:25:00;;;;;;;10.15;2.03;;;;;;;;;;5043566;28;20396;-74
2024/01/19 07:27:26;;;;;;;15.02;2.25;;;;;;;;;;5047269;28;20059;-74
2024/01/19 07:29:52;;;;;;;11.80;1.85;;;;;;;;;;5047163;28;20005;-74
2024/01/19 07:32:21;;;;;;;14.63;2.35;;;;;;;;;;5046798;28;20100;-74
2024/01/19 07:34:47;;;;;;;17.33;2.30;;;;;;;;;;5043858;28;20021;-74
2024/01/19 07:37:13;;;;;;;12.35;1.90;;;;;;;;;;5047583;28;20528;-75
2024/01/19 07:39:39;;;;;;;13.57;1.85;;;;;;;;;;5049284;28;20417;-74
2024/01/19 07:42:05;;;;;;;13.73;1.77;;;;;;;;;;5047806;28;20009;-74
2024/01/19 07:44:31;;;;;;;11.13;1.80;;;;;;;;;;5047860;28;20087;-75
2024/01/19 07:46:57;;;;;;;14.45;2.03;;;;;;;;;;5029763;28;20041;-74
2024/01/19 07:49:23;;;;;;;12.10;1.67;;;;;;;;;;5029429;28;20056;-75
2024/01/19 07:51:49;;;;;;;14.82;2.30;;;;;;;;;;5044739;28;20009;-76
2024/01/19 07:54:17;;;;;;;13.13;2.15;;;;;;;;;;5045237;28;20025;-76
2024/01/19 07:56:43;;;;;;;10.32;1.92;;;;;;;;;;5045075;28;20024;-76
2024/01/19 07:59:09;;;;;;;12.88;2.20;;;;;;;;;;5046558;28;20109;-76
2024/01/19 08:01:35;;;;;;;13.90;2.13;;;;;;;;;;5045247;28;20116;-76
2024/01/19 08:04:01;;;;;;;10.63;1.98;;;;;;;;;;5048034;28;20017;-76
2024/01/19 08:06:28;;;;;;;13.88;2.85;;;;;;;;;;5044931;28;20032;-76
2024/01/19 08:08:54;;;;;;;17.30;2.50;;;;;;;;;;5046914;28;20029;-76
2024/01/19 08:11:20;;;;;;;15.45;2.70;;;;;;;;;;5044756;28;20024;-76
2024/01/19 08:13:46;;;;;;;15.80;4.03;;;;;;;;;;5046625;28;20025;-76
2024/01/19 08:16:12;;;;;;;17.67;4.38;;;;;;;;;;5046560;28;20021;-76
2024/01/19 08:18:38;;;;;;;16.90;4.25;;;;;;;;;;5045390;28;20013;-76
2024/01/19 08:21:04;;;;;;;17.58;3.63;;;;;;;;;;5044054;28;20027;-76
2024/01/19 08:23:31;;;;;;;16.38;3.25;;;;;;;;;;5046617;28;20056;-76
2024/01/19 08:25:57;;;;;;;16.83;3.50;;;;;;;;;;5045872;28;20160;-76
2024/01/19 08:28:23;;;;;;;16.60;3.53;;;;;;;;;;5048418;28;20112;-76
2024/01/19 08:30:49;;;;;;;19.10;7.25;;;;;;;;;;5045664;28;20018;-76
2024/01/19 08:33:15;;;;;;;20.08;6.25;;;;;;;;;;5048141;28;20385;-76
2024/01/19 08:35:42;;;;;;;18.52;6.65;;;;;;;;;;5042375;28;20509;-76
2024/01/19 08:38:08;;;;;;;14.82;4.50;;;;;;;;;;5027882;28;20017;-77
2024/01/19 08:40:34;;;;;;;14.63;4.13;;;;;;;;;;5036864;28;20026;-76
2024/01/19 08:43:00;;;;;;;20.10;4.32;;;;;;;;;;5048124;28;20044;-76
2024/01/19 08:45:28;;;;;;;14.50;2.60;;;;;;;;;;5048579;28;20158;-76
2024/01/19 08:47:57;;;;;;;14.25;2.83;;;;;;;;;;5028853;28;20021;-75
2024/01/19 08:50:24;;;;;;;9.65;2.33;;;;;;;;;;5029178;28;20078;-75
2024/01/19 08:52:50;;;;;;;13.23;2.15;;;;;;;;;;5047009;28;20513;-76
2024/01/19 08:55:16;;;;;;;13.38;2.40;;;;;;;;;;5047179;28;20056;-74
2024/01/19 08:57:42;;;;;;;12.57;2.50;;;;;;;;;;5029468;28;20032;-75
2024/01/19 09:00:09;;;;;;;16.40;2.40;;;;;;;;;;5027231;28;20021;-74
2024/01/19 09:02:35;;;;;;;13.15;2.55;;;;;;;;;;5038680;28;20056;-74
2024/01/19 09:05:01;;;;;;;17.92;2.65;;;;;;;;;;5036433;28;20029;-74
2024/01/19 09:07:27;;;;;;;14.55;2.58;;;;;;;;;;5040096;28;20029;-75
2024/01/19 09:09:53;;;;;;;15.10;1.88;;;;;;;;;;5038092;28;20040;-75
2024/01/19 09:12:19;;;;;;;13.27;2.10;;;;;;;;;;5038163;28;20026;-76
2024/01/19 09:14:45;;;;;;;11.25;1.92;;;;;;;;;;5038604;28;20100;-75
2024/01/19 09:17:11;;;;;;;13.32;1.90;;;;;;;;;;5038344;28;20070;-75
2024/01/19 09:19:37;;;;;;;12.90;2.22;;;;;;;;;;5038674;28;20021;-75
2024/01/19 09:22:03;;;;;;;12.50;2.80;;;;;;;;;;5032687;28;20478;-74
2024/01/19 09:24:29;;;;;;;10.93;2.00;;;;;;;;;;5048753;28;20127;-74
2024/01/19 09:26:55;;;;;;;12.45;1.92;;;;;;;;;;5048812;28;20021;-74
2024/01/19 09:29:21;;;;;;;11.52;2.20;;;;;;;;;;5051028;28;20033;-74
2024/01/19 09:31:48;;;;;;;15.18;2.42;;;;;;;;;;5044447;28;20078;-74
2024/01/19 09:34:14;;;;;;;9.75;2.08;;;;;;;;;;5041291;28;20017;-74
2024/01/19 09:36:41;;;;;;;14.45;2.45;;;;;;;;;;5043282;28;20032;-74
2024/01/19 09:39:07;;;;;;;12.35;1.75;;;;;;;;;;5044859;28;20110;-74
2024/01/19 09:41:53;;;;;;;12.23;2.03;;;;;;;;;;5041482;28;20033;-74
2024/01/19 09:44:20;;;;;;;12.85;1.63;;;;;;;;;;5050726;28;20519;-74
2024/01/19 09:46:52;;;;;;;8.63;1.65;;;;;;;;;;5048301;28;20074;-74
2024/01/19 09:49:34;;;;;;;16.40;2.08;;;;;;;;;;5049129;28;20032;-74
2024/01/19 09:52:00;;;;;;;13.48;1.75;;;;;;;;;;5039269;28;20325;-74
2024/01/19 09:54:35;;;;;;;14.25;2.30;;;;;;;;;;5048985;28;20021;-74
2024/01/19 09:57:01;;;;;;;10.30;1.70;;;;;;;;;;5048660;28;20024;-74
2024/01/19 09:59:30;;;;;;;8.23;1.52;;;;;;;;;;5048834;28;20029;-74
2024/01/19 10:01:56;;;;;;;8.05;1.75;;;;;;;;;;5048442;28;20028;-74
2024/01/19 10:04:23;;;;;;;11.88;2.13;;;;;;;;;;5041722;28;20049;-74
2024/01/19 10:06:50;;;;;;;7.63;1.52;;;;;;;;;;5044501;28;20025;-74
2024/01/19 10:09:17;;;;;;;8.43;1.50;;;;;;;;;;5036883;28;20029;-71
2024/01/19 10:11:43;;;;;;;7.95;1.40;;;;;;;;;;5049489;28;20090;-72
2024/01/19 10:14:09;;;;;;;12.18;1.92;;;;;;;;;;5049600;28;20045;-72
2024/01/19 10:16:36;;;;;;;8.57;1.83;;;;;;;;;;5048661;28;20075;-72
2024/01/19 10:19:04;;;;;;;8.07;1.20;;;;;;;;;;5049262;28;20005;-72
2024/01/19 10:21:30;;;;;;;6.28;1.38;;;;;;;;;;5049618;28;20075;-72
2024/01/19 10:24:09;;;;;;;8.20;1.52;;;;;;;;;;5047741;28;20040;-72
2024/01/19 10:26:39;;;;;;;8.95;1.58;;;;;;;;;;5047921;28;20109;-72
2024/01/19 10:29:11;;;;;;;7.90;1.48;;;;;;;;;;5048107;28;20045;-71
2024/01/19 10:31:38;;;;;;;11.07;1.52;;;;;;;;;;5048245;28;20129;-71
2024/01/19 10:34:04;;;;;;;7.80;1.60;;;;;;;;;;5048165;28;20013;-72
2024/01/19 10:36:40;;;;;;;10.77;1.70;;;;;;;;;;5048761;28;20024;-70
2024/01/19 10:39:22;;;;;;;8.50;1.60;;;;;;;;;;5046394;28;20033;-71
2024/01/19 10:41:49;;;;;;;7.53;1.77;;;;;;;;;;5043558;28;20114;-71
2024/01/19 10:44:17;;;;;;;10.80;1.60;;;;;;;;;;5043932;28;20013;-71
2024/01/19 10:46:43;;;;;;;9.77;1.75;;;;;;;;;;5049119;28;20108;-71
2024/01/19 10:49:10;;;;;;;9.77;1.70;;;;;;;;;;5038754;28;20108;-71
2024/01/19 10:51:42;;;;;;;10.18;2.25;;;;;;;;;;5036585;28;20025;-71
2024/01/19 10:54:15;;;;;;;14.57;2.03;;;;;;;;;;5035700;28;20032;-72
2024/01/19 10:56:42;;;;;;;13.90;2.00;;;;;;;;;;5043836;28;20104;-72
2024/01/19 10:59:12;;;;;;;13.23;2.20;;;;;;;;;;5049134;28;20057;-70
2024/01/19 11:01:38;;;;;;;7.55;1.23;;;;;;;;;;5049183;28;20504;-71
2024/01/19 11:04:08;;;;;;;8.68;2.00;;;;;;;;;;5046712;28;20029;-71
2024/01/19 11:06:36;;;;;;;8.38;1.73;;;;;;;;;;5037662;28;20560;-71
2024/01/19 11:09:02;;;;;;;10.95;2.33;;;;;;;;;;5037228;28;20076;-71
2024/01/19 11:11:31;;;;;;;7.10;1.80;;;;;;;;;;5040237;28;20119;-71
2024/01/19 11:14:00;;;;;;;6.65;1.70;;;;;;;;;;5036416;28;20021;-71
2024/01/19 11:16:26;;;;;;;10.80;1.95;;;;;;;;;;5044273;28;20107;-71
2024/01/19 11:18:53;;;;;;;6.65;1.25;;;;;;;;;;5048640;28;20044;-71
2024/01/19 11:21:19;;;;;;;8.38;1.40;;;;;;;;;;5047202;28;20040;-71
2024/01/19 11:23:46;;;;;;;11.73;1.80;;;;;;;;;;5045841;28;20056;-71
2024/01/19 11:26:15;;;;;;;12.32;1.67;;;;;;;;;;5043499;28;20108;-71
2024/01/19 11:28:50;;;;;;;6.70;1.42;;;;;;;;;;5043291;28;20045;-72
2024/01/19 11:31:16;;;;;;;4.80;1.13;;;;;;;;;;5038117;28;20017;-71
2024/01/19 11:33:42;;;;;;;10.35;1.58;;;;;;;;;;5049171;28;20028;-72
2024/01/19 11:36:08;;;;;;;9.32;1.52;;;;;;;;;;5037738;28;20112;-71
2024/01/19 11:38:37;;;;;;;8.43;1.52;;;;;;;;;;5041144;28;20033;-73
2024/01/19 11:41:03;;;;;;;4.10;1.05;;;;;;;;;;5037857;28;20049;-73
2024/01/19 11:43:36;;;;;;;6.95;1.30;;;;;;;;;;5039623;28;20052;-73
2024/01/19 11:46:02;;;;;;;8.48;1.10;;;;;;;;;;5046071;28;20022;-73
2024/01/19 11:48:42;;;;;;;10.57;1.30;;;;;;;;;;5046984;28;20604;-73
2024/01/19 11:51:09;;;;;;;8.18;1.10;;;;;;;;;;5047204;28;20531;-73
2024/01/19 11:53:54;;;;;;;5.53;1.10;;;;;;;;;;5048588;28;20102;-73
2024/01/19 11:56:24;;;;;;;11.27;1.20;;;;;;;;;;5043766;28;20104;-73
2024/01/19 11:58:50;;;;;;;8.23;1.20;;;;;;;;;;5042668;28;20064;-73
2024/01/19 12:01:16;;;;;;;10.90;1.73;;;;;;;;;;5047155;28;20104;-74
2024/01/19 12:03:46;;;;;;;8.98;1.83;;;;;;;;;;5036550;28;20010;-72
2024/01/19 12:06:15;;;;;;;5.35;0.95;;;;;;;;;;5046983;28;20099;-73
2024/01/19 12:08:41;;;;;;;6.63;1.20;;;;;;;;;;5035520;28;20535;-70
2024/01/19 12:11:11;;;;;;;8.07;1.25;;;;;;;;;;5046200;28;20230;-73
2024/01/19 12:13:39;;;;;;;9.55;1.48;;;;;;;;;;5046739;28;20044;-73
2024/01/19 12:16:05;;;;;;;10.38;1.48;;;;;;;;;;5040559;28;20036;-73
2024/01/19 12:18:33;;;;;;;6.22;1.30;;;;;;;;;;5040528;28;20017;-73
2024/01/19 12:21:00;;;;;;;10.50;1.40;;;;;;;;;;5048015;28;20055;-73
2024/01/19 12:23:28;;;;;;;7.25;1.08;;;;;;;;;;5044118;28;20057;-73
2024/01/19 12:25:58;;;;;;;7.53;1.30;;;;;;;;;;5040975;28;20021;-73
2024/01/19 12:28:24;;;;;;;7.00;1.40;;;;;;;;;;5039807;28;20188;-72
2024/01/19 12:30:55;;;;;;;8.98;1.10;;;;;;;;;;5048065;28;20025;-73
2024/01/19 12:33:25;;;;;;;8.68;1.15;;;;;;;;;;5046481;28;20091;-73
2024/01/19 12:36:01;;;;;;;5.30;0.90;;;;;;;;;;5046199;28;20025;-73
2024/01/19 12:38:27;;;;;;;7.43;1.27;;;;;;;;;;5046775;28;20021;-73
2024/01/19 12:40:53;;;;;;;8.65;1.00;;;;;;;;;;5046750;28;20028;-73
2024/01/19 12:43:19;;;;;;;8.55;1.00;;;;;;;;;;5047499;28;20013;-73
2024/01/19 12:45:45;;;;;;;6.68;1.10;;;;;;;;;;5047524;28;20108;-73
2024/01/19 12:48:11;;;;;;;5.50;0.90;;;;;;;;;;5046385;28;20013;-72
2024/01/19 12:50:37;;;;;;;8.57;1.50;;;;;;;;;;5046308;28;20540;-72
2024/01/19 12:53:03;;;;;;;9.43;1.90;;;;;;;;;;5053189;28;20013;-73
2024/01/19 12:55:30;;;;;;;7.30;1.60;;;;;;;;;;5052743;28;20017;-73
2024/01/19 12:57:56;;;;;;;7.57;1.75;;;;;;;;;;5042264;28;20029;-73
2024/01/19 13:00:33;;;;;;;12.07;1.98;;;;;;;;;;5043969;28;20123;-73
2024/01/19 13:03:00;;;;;;;9.43;2.33;;;;;;;;;;5059178;28;20075;-73
2024/01/19 13:05:32;;;;;;;5.57;2.05;;;;;;;;;;5042889;28;20025;-72
2024/01/19 13:08:02;;;;;;;10.27;2.22;;;;;;;;;;5047592;28;20025;-73
2024/01/19 13:10:29;;;;;;;9.27;2.30;;;;;;;;;;5045978;28;20032;-74
2024/01/19 13:13:11;;;;;;;6.75;2.08;;;;;;;;;;5052540;28;20052;-73
2024/01/19 13:15:37;;;;;;;14.10;2.25;;;;;;;;;;5052400;28;20373;-73
2024/01/19 13:18:14;;;;;;;7.50;2.30;;;;;;;;;;5041580;28;20503;-73
2024/01/19 13:20:40;;;;;;;13.63;2.60;;;;;;;;;;5039435;28;20034;-73
2024/01/19 13:23:06;;;;;;;12.40;2.55;;;;;;;;;;5041987;28;20029;-73
2024/01/19 13:25:32;;;;;;;5.25;2.28;;;;;;;;;;5040505;28;20477;-73
2024/01/19 13:27:59;;;;;;;10.15;2.53;;;;;;;;;;5036101;28;20356;-73
2024/01/19 13:30:28;;;;;;;11.73;2.75;;;;;;;;;;5048248;28;20025;-73
2024/01/19 13:33:00;;;;;;;6.63;2.30;;;;;;;;;;5051292;28;20021;-73
2024/01/19 13:35:26;;;;;;;11.27;2.30;;;;;;;;;;5035825;28;20022;-73
2024/01/19 13:37:52;;;;;;;8.70;3.25;;;;;;;;;;5050969;28;20059;-73
2024/01/19 13:40:18;;;;;;;8.05;2.15;;;;;;;;;;5053357;28;20317;-73
2024/01/19 13:42:45;;;;;;;8.73;2.90;;;;;;;;;;5051933;28;20025;-73
2024/01/19 13:45:11;;;;;;;9.20;3.35;;;;;;;;;;5054007;28;20040;-73
2024/01/19 13:47:38;;;;;;;7.90;2.85;;;;;;;;;;5052320;28;20041;-73
2024/01/19 13:50:04;;;;;;;7.97;2.72;;;;;;;;;;5051473;28;20067;-73
2024/01/19 13:52:31;;;;;;;8.52;2.33;;;;;;;;;;5053018;28;20021;-73
2024/01/19 13:54:57;;;;;;;9.35;2.38;;;;;;;;;;5052128;28;20009;-73
2024/01/19 13:57:23;;;;;;;5.43;2.28;;;;;;;;;;5053008;28;20025;-73
2024/01/19 13:59:49;;;;;;;11.15;2.47;;;;;;;;;;5053088;28;20012;-73
2024/01/19 14:02:17;;;;;;;6.60;2.55;;;;;;;;;;5053336;28;20055;-73
2024/01/19 14:04:43;;;;;;;11.10;2.83;;;;;;;;;;5036480;28;20016;-73
2024/01/19 14:07:10;;;;;;;6.85;2.42;;;;;;;;;;5046574;28;20516;-73
2024/01/19 14:09:37;;;;;;;8.80;2.20;;;;;;;;;;5036073;28;20059;-73
2024/01/19 14:12:04;;;;;;;8.85;2.72;;;;;;;;;;5048788;28;20013;-73
2024/01/19 14:14:30;;;;;;;7.00;2.22;;;;;;;;;;5050008;28;20046;-73
2024/01/19 14:16:59;;;;;;;8.38;2.22;;;;;;;;;;5050108;28;20063;-72
2024/01/19 14:19:25;;;;;;;6.00;2.17;;;;;;;;;;5049563;28;20096;-73
2024/01/19 14:21:51;;;;;;;7.93;2.00;;;;;;;;;;5049590;28;20100;-73
2024/01/19 14:24:17;;;;;;;9.13;2.13;;;;;;;;;;5042312;28;20025;-72
2024/01/19 14:26:43;;;;;;;8.10;1.77;;;;;;;;;;5038724;28;20028;-73
2024/01/19 14:29:11;;;;;;;10.77;2.05;;;;;;;;;;5047529;28;20053;-73
2024/01/19 14:31:39;;;;;;;8.60;2.08;;;;;;;;;;5040383;28;20317;-72
2024/01/19 14:34:05;;;;;;;5.88;2.10;;;;;;;;;;5046292;28;20021;-72
2024/01/19 14:36:31;;;;;;;12.10;3.40;;;;;;;;;;5047570;28;20043;-73